Airport View

Enter AWOS ICAO identifier for current METAR.

ex. KFNL

KDYR 191256Z AUTO 06011KT 10SM BKN110 M01/M04 A3048 RMK AO2 SLP339 T10061039 FZRANO PNO $

19 Feb 2019 13:23

Frequency: 135.625

Phone: 731-287-0300

Other Area AWOS: KHKA - KM04 - KBYH - KUCY

TAF KMKL 191133Z 1912/2012 05010KT P6SM BKN150 FM191600 06010KT P6SM VCSH OVC080 FM192000 06010KT 5SM -SHRA BR OVC015 FM192300 08012KT 3SM SHRA BR OVC009 WS020/12045KT FM200500 12011KT 4SM SHRA BR VCTS OVC007CB WS020/17060KT FM200900 16010KT 3SM SHRA BR VCTS BKN006CB OVC015 WS020/18055KT